createdAt,value
2017-05-07T00:02:19.270Z,89.95
2017-05-07T00:04:26.041Z,90.53
2017-05-07T00:06:41.217Z,89.86
2017-05-07T00:08:56.390Z,89.67
2017-05-07T00:11:20.096Z,91.63
2017-05-07T00:13:43.732Z,92.16
2017-05-07T00:16:07.306Z,92.73
2017-05-07T00:18:30.873Z,92.59
2017-05-07T00:20:54.451Z,92.97
2017-05-07T00:23:18.004Z,93.26
2017-05-07T00:25:41.584Z,93.93
2017-05-07T00:28:05.153Z,93.35
2017-05-07T00:30:28.718Z,92.92
2017-05-07T00:32:38.501Z,92.83
2017-05-07T00:35:02.146Z,93.64
2017-05-07T00:37:25.713Z,94.21
2017-05-07T00:39:49.282Z,94.31
2017-05-07T00:41:50.478Z,94.89
2017-05-07T00:43:57.305Z,95.17
2017-05-07T00:46:20.886Z,95.27
2017-05-07T00:48:36.047Z,95.17
2017-05-07T00:50:59.613Z,95.46
2017-05-07T00:53:23.182Z,94.89
2017-05-07T00:55:46.753Z,94.7
2017-05-07T00:57:57.040Z,95.36
2017-05-07T01:00:20.682Z,96.03
2017-05-07T01:02:35.852Z,97.13
2017-05-07T01:04:59.422Z,96.13
2017-05-07T01:07:22.993Z,96.47
2017-05-07T01:09:38.167Z,95.07
2017-05-07T01:11:53.342Z,96.18
2017-05-07T01:14:16.909Z,95.36
2017-05-07T01:16:40.482Z,95.17
2017-05-07T01:18:55.547Z,94.5
2017-05-07T01:21:19.122Z,95.36
2017-05-07T01:23:42.686Z,93.35
2017-05-07T01:26:06.257Z,94.6
2017-05-07T01:28:29.826Z,95.46
2017-05-07T01:30:53.408Z,94.21
2017-05-07T01:33:08.563Z,93.55
2017-05-07T01:35:32.144Z,93.74
2017-05-07T01:37:55.713Z,93.84
2017-05-07T01:40:19.285Z,92.49
2017-05-07T01:42:42.855Z,95.22
2017-05-07T01:44:53.061Z,94.55
2017-05-07T01:46:59.887Z,94.02
2017-05-07T01:49:01.046Z,93.4
2017-05-07T01:51:24.707Z,93.55
2017-05-07T01:53:39.857Z,94.12
2017-05-07T01:56:03.444Z,94.02
2017-05-07T01:58:27.021Z,95.89
2017-05-07T02:00:50.584Z,95.41
2017-05-07T02:03:14.154Z,95.22
2017-05-07T02:05:37.722Z,95.07
2017-05-07T02:07:52.904Z,94.7
2017-05-07T02:10:08.068Z,95.51
2017-05-07T02:12:23.234Z,95.46
2017-05-07T02:14:46.809Z,95.56
2017-05-07T02:17:01.981Z,95.84
2017-05-07T02:19:25.460Z,94.98
2017-05-07T02:21:49.020Z,96.47
2017-05-07T02:24:04.199Z,96.03
2017-05-07T02:26:27.780Z,95.56
2017-05-07T02:28:37.972Z,94.79
2017-05-07T02:30:39.625Z,93.93
2017-05-07T02:33:03.248Z,94.7
2017-05-07T02:35:26.817Z,95.46
2017-05-07T02:37:50.381Z,95.17
2017-05-07T02:40:05.545Z,94.31
2017-05-07T02:42:29.129Z,94.98
2017-05-07T02:44:52.696Z,93.74
2017-05-07T02:47:16.269Z,93.55
2017-05-07T02:49:39.838Z,93.07
2017-05-07T02:52:03.408Z,93.55
2017-05-07T02:54:26.976Z,93.26
2017-05-07T02:56:28.669Z,95.27
2017-05-07T02:58:52.308Z,96.84
2017-05-07T03:01:15.875Z,96.84
2017-05-07T03:03:39.447Z,96.13
2017-05-07T03:06:03.017Z,96.22
2017-05-07T03:08:26.580Z,93.84
2017-05-07T03:10:41.757Z,93.45
2017-05-07T03:13:05.337Z,93.02
2017-05-07T03:15:28.892Z,93.07
2017-05-07T03:17:52.468Z,94.02
2017-05-07T03:20:07.636Z,95.41
2017-05-07T03:22:22.812Z,94.6
2017-05-07T03:24:46.378Z,96.03
2017-05-07T03:27:09.949Z,95.65
2017-05-07T03:29:33.410Z,94.79
2017-05-07T03:31:56.989Z,95.56
2017-05-07T03:34:20.564Z,96.66
2017-05-07T03:36:35.767Z,97.61
2017-05-07T03:38:59.306Z,98.09
2017-05-07T03:41:00.491Z,97.8
2017-05-07T03:43:24.116Z,96.61
2017-05-07T03:45:47.586Z,97.18
2017-05-07T03:48:11.153Z,96.03
2017-05-07T03:50:34.720Z,96.03
2017-05-07T03:52:44.414Z,95.36
2017-05-07T03:54:59.646Z,96.84
2017-05-07T03:57:23.213Z,96.99
2017-05-07T03:59:46.777Z,97.47
2017-05-07T04:02:10.368Z,97.23
2017-05-07T04:04:33.920Z,97.9
2017-05-07T04:06:44.217Z,97.85
2017-05-07T04:09:07.743Z,99.43
2017-05-07T04:11:31.247Z,99.43
2017-05-07T04:13:46.385Z,99.9
2017-05-07T04:16:09.962Z,99.62
2017-05-07T04:18:11.140Z,99.67
2017-05-07T04:20:34.673Z,98.47
2017-05-07T04:22:58.245Z,99.99
2017-05-07T04:25:21.813Z,99.99
2017-05-07T04:27:36.985Z,98.9
2017-05-07T04:30:00.550Z,98.95
2017-05-07T04:32:24.123Z,99.99
2017-05-07T04:34:39.295Z,99.99
2017-05-07T04:36:45.967Z,99.99
2017-05-07T04:39:01.143Z,98.9
2017-05-07T04:41:24.716Z,99.99
2017-05-07T04:43:48.280Z,99.99
2017-05-07T04:46:03.456Z,99.99
2017-05-07T04:48:27.025Z,99.99
2017-05-07T04:50:50.598Z,99.99
2017-05-07T04:53:14.162Z,99.99
2017-05-07T04:55:37.737Z,99.99
2017-05-07T04:58:01.305Z,98.9
2017-05-07T05:00:16.469Z,97.28
2017-05-07T05:02:40.048Z,98.33
2017-05-07T05:04:55.221Z,98.14
2017-05-07T05:07:18.791Z,96.84
2017-05-07T05:09:42.375Z,95.51
2017-05-07T05:12:05.931Z,95.61
2017-05-07T05:14:29.549Z,95.41
2017-05-07T05:16:53.174Z,97.37
2017-05-07T05:19:16.746Z,96.51
2017-05-07T05:21:31.930Z,94.55
2017-05-07T05:23:55.481Z,96.8
2017-05-07T05:26:10.663Z,97.18
2017-05-07T05:28:34.242Z,98.52
2017-05-07T05:30:57.751Z,98.81
2017-05-07T05:33:21.265Z,97.08
2017-05-07T05:35:44.834Z,99.67
2017-05-07T05:38:00.008Z,98.33
2017-05-07T05:40:23.575Z,96.13
2017-05-07T05:42:38.668Z,96.22
2017-05-07T05:44:53.813Z,96.8
2017-05-07T05:47:17.386Z,94.98
2017-05-07T05:49:40.956Z,93.88
2017-05-07T05:51:34.336Z,93.4
2017-05-07T05:53:57.994Z,93.98
2017-05-07T05:56:21.679Z,94.7
2017-05-07T05:58:31.953Z,94.07
2017-05-07T06:00:47.135Z,95.56
2017-05-07T06:03:10.772Z,94.55
2017-05-07T06:05:34.320Z,93.5
2017-05-07T06:07:57.918Z,93.69
2017-05-07T06:10:21.473Z,93.64
2017-05-07T06:12:45.054Z,94.12
2017-05-07T06:15:08.614Z,96.13
2017-05-07T06:17:10.423Z,96.03
2017-05-07T06:19:12.113Z,95.27
2017-05-07T06:21:35.705Z,94.26
2017-05-07T06:23:50.971Z,93.93
2017-05-07T06:26:14.549Z,92.63
2017-05-07T06:28:38.236Z,94.12
2017-05-07T06:31:01.892Z,94.07
2017-05-07T06:33:25.573Z,94.65
2017-05-07T06:35:40.736Z,94.31
2017-05-07T06:37:50.526Z,94.7
2017-05-07T06:40:14.155Z,94.36
2017-05-07T06:42:37.841Z,92.16
2017-05-07T06:45:01.401Z,92.83
2017-05-07T06:47:24.966Z,93.69
2017-05-07T06:49:48.631Z,92.16
2017-05-07T06:52:12.206Z,93.69
2017-05-07T06:54:35.788Z,92.73
2017-05-07T06:56:50.953Z,94.45
2017-05-07T06:59:14.621Z,93.59
2017-05-07T07:01:21.402Z,93.02
2017-05-07T07:03:36.576Z,92.83
2017-05-07T07:05:43.342Z,92.25
2017-05-07T07:08:06.918Z,93.5
2017-05-07T07:10:22.094Z,94.55
2017-05-07T07:12:37.255Z,93.69
2017-05-07T07:15:00.835Z,94.17
2017-05-07T07:17:24.404Z,94.7
2017-05-07T07:19:48.079Z,94.55
2017-05-07T07:22:11.751Z,93.98
2017-05-07T07:24:35.432Z,94.26
2017-05-07T07:26:59.092Z,93.69
2017-05-07T07:29:00.370Z,93.79
2017-05-07T07:31:24.009Z,94.93
2017-05-07T07:33:25.199Z,94.36
2017-05-07T07:35:48.933Z,94.17
2017-05-07T07:38:12.496Z,96.08
2017-05-07T07:40:36.171Z,93.79
2017-05-07T07:42:59.848Z,91.72
2017-05-07T07:45:23.516Z,93.45
2017-05-07T07:47:47.193Z,92.3
2017-05-07T07:50:10.859Z,91.29
2017-05-07T07:52:26.041Z,91.82
2017-05-07T07:54:41.248Z,92.3
2017-05-07T07:56:56.440Z,93.54
2017-05-07T07:59:20.034Z,92.49
2017-05-07T08:01:43.627Z,92.92
2017-05-07T08:04:07.185Z,94.17
2017-05-07T08:06:08.914Z,95.12
2017-05-07T08:08:24.113Z,93.26
2017-05-07T08:10:47.697Z,92.49
2017-05-07T08:13:11.297Z,91.82
2017-05-07T08:15:34.890Z,93.54
2017-05-07T08:17:58.607Z,93.88
2017-05-07T08:20:08.358Z,94.07
2017-05-07T08:22:31.965Z,93.45
2017-05-07T08:24:55.565Z,93.26
2017-05-07T08:27:10.724Z,95.41
2017-05-07T08:29:34.305Z,94.5
2017-05-07T08:31:57.866Z,93.02
2017-05-07T08:34:13.007Z,92.01
2017-05-07T08:36:36.613Z,91.72
2017-05-07T08:39:00.193Z,92.3
2017-05-07T08:41:23.791Z,92.11
2017-05-07T08:43:47.397Z,93.74
2017-05-07T08:45:48.629Z,94.93
2017-05-07T08:48:12.263Z,93.26
2017-05-07T08:50:35.902Z,94.4
2017-05-07T08:52:59.517Z,92.87
2017-05-07T08:55:23.191Z,91.86
2017-05-07T08:57:46.863Z,92.25
2017-05-07T09:00:10.547Z,91.29
2017-05-07T09:02:34.228Z,91.29
2017-05-07T09:04:57.883Z,91.67
2017-05-07T09:07:14.204Z,91.67
2017-05-07T09:09:37.849Z,91
2017-05-07T09:12:01.526Z,92.82
2017-05-07T09:14:25.209Z,93.64
2017-05-07T09:16:48.872Z,93.78
2017-05-07T09:19:12.548Z,92.06
2017-05-07T09:21:36.212Z,92.54
2017-05-07T09:23:45.951Z,92.44
2017-05-07T09:26:01.222Z,92.54
2017-05-07T09:28:24.906Z,93.74
2017-05-07T09:30:48.584Z,93.83
2017-05-07T09:32:49.957Z,92.82
2017-05-07T09:35:13.713Z,94.6
2017-05-07T09:37:37.388Z,94.69
2017-05-07T09:40:01.057Z,94.12
2017-05-07T09:42:24.707Z,94.12
2017-05-07T09:44:17.521Z,95.17
2017-05-07T09:46:41.239Z,93.3
2017-05-07T09:49:04.918Z,94.98
2017-05-07T09:51:28.588Z,95.46
2017-05-07T09:53:52.257Z,94.07
2017-05-07T09:56:07.519Z,93.78
2017-05-07T09:58:31.106Z,95.65
2017-05-07T10:00:54.783Z,96.13
2017-05-07T10:03:09.951Z,97.52
2017-05-07T10:05:33.564Z,96.84
2017-05-07T10:07:57.201Z,94.89
2017-05-07T10:10:20.871Z,93.69
2017-05-07T10:12:44.535Z,93.02
2017-05-07T10:15:08.176Z,93.49
2017-05-07T10:17:31.818Z,93.02
2017-05-07T10:19:55.550Z,91.67
2017-05-07T10:22:10.813Z,91.24
2017-05-07T10:24:34.528Z,92.54
2017-05-07T10:26:59.193Z,94.35
2017-05-07T10:29:22.872Z,93.54
2017-05-07T10:31:46.539Z,94.6
2017-05-07T10:34:10.206Z,95.56
2017-05-07T10:36:33.893Z,94.45
2017-05-07T10:38:43.619Z,95.07
2017-05-07T10:40:58.903Z,94.6
2017-05-07T10:43:22.578Z,93.54
2017-05-07T10:45:37.853Z,93.49
2017-05-07T10:48:01.527Z,94.69
2017-05-07T10:50:25.207Z,93.54
2017-05-07T10:52:48.866Z,93.54
2017-05-07T10:55:12.539Z,93.35
2017-05-07T10:57:37.236Z,92.78
2017-05-07T11:00:00.911Z,91.19
2017-05-07T11:02:24.581Z,90.47
2017-05-07T11:04:31.448Z,89.27
2017-05-07T11:06:41.225Z,87.11
2017-05-07T11:08:56.574Z,87.55
2017-05-07T11:11:03.462Z,86.92
2017-05-07T11:13:18.841Z,86.15
2017-05-07T11:15:42.622Z,85.38
2017-05-07T11:17:57.997Z,85.72
2017-05-07T11:20:21.778Z,87.26
2017-05-07T11:22:45.552Z,87.98
2017-05-07T11:25:09.329Z,87.6
2017-05-07T11:27:33.066Z,86.21
2017-05-07T11:29:34.313Z,87.7
2017-05-07T11:31:49.718Z,87.02
2017-05-07T11:34:05.024Z,87.74
2017-05-07T11:36:28.711Z,87.79
2017-05-07T11:38:52.401Z,87.64
2017-05-07T11:41:07.651Z,87.31
2017-05-07T11:43:17.427Z,87.12
2017-05-07T11:45:41.138Z,86.93
2017-05-07T11:48:04.840Z,86.4
2017-05-07T11:50:06.593Z,85.28
2017-05-07T11:52:30.336Z,85.53
2017-05-07T11:54:45.758Z,86.01
2017-05-07T11:57:09.485Z,85.15
2017-05-07T11:59:24.847Z,85.82
2017-05-07T12:01:48.638Z,83.75
2017-05-07T12:03:50.399Z,84.42
2017-05-07T12:06:14.276Z,85.53
2017-05-07T12:08:38.056Z,85.05
2017-05-07T12:11:01.829Z,85.72
2017-05-07T12:13:12.102Z,82.79
2017-05-07T12:15:35.865Z,83.27
2017-05-07T12:17:37.602Z,83.14
2017-05-07T12:20:01.398Z,82.03
2017-05-07T12:22:25.163Z,81.59
2017-05-07T12:24:48.915Z,82.6
2017-05-07T12:27:04.338Z,82.56
2017-05-07T12:29:28.193Z,80.43
2017-05-07T12:31:51.972Z,81.74
2017-05-07T12:34:15.760Z,83.23
2017-05-07T12:36:31.116Z,84
2017-05-07T12:38:54.899Z,84.09
2017-05-07T12:41:10.484Z,83.76
2017-05-07T12:43:34.254Z,84.82
2017-05-07T12:45:58.016Z,84.82
2017-05-07T12:48:21.806Z,84.82
2017-05-07T12:50:47.520Z,84.82
2017-05-07T12:53:11.303Z,84.19
2017-05-07T12:55:35.069Z,84.28
2017-05-07T12:57:58.846Z,83.61
2017-05-07T13:00:09.130Z,83.95
2017-05-07T13:02:32.883Z,82.31
2017-05-07T13:04:56.657Z,81.64
2017-05-07T13:06:58.392Z,81.84
2017-05-07T13:09:00.106Z,81.07
2017-05-07T13:11:15.556Z,79.67
2017-05-07T13:13:39.324Z,80.05
2017-05-07T13:15:41.128Z,81.45
2017-05-07T13:17:51.368Z,80.53
2017-05-07T13:19:52.636Z,82.65
2017-05-07T13:22:16.469Z,82.89
2017-05-07T13:24:40.337Z,81.64
2017-05-07T13:27:05.159Z,82.08
2017-05-07T13:29:28.938Z,80.91
2017-05-07T13:31:52.693Z,79.67
2017-05-07T13:34:16.593Z,79.86
2017-05-07T13:36:40.446Z,77.69
2017-05-07T13:39:04.326Z,77.4
2017-05-07T13:41:29.138Z,77.01
2017-05-07T13:43:53.008Z,78.61
2017-05-07T13:45:54.768Z,78.61
2017-05-07T13:48:18.654Z,78.96
2017-05-07T13:50:42.507Z,80.97
2017-05-07T13:53:06.387Z,81.74
2017-05-07T13:55:21.842Z,81.98
2017-05-07T13:57:37.258Z,80.58
2017-05-07T14:00:01.153Z,78.9
2017-05-07T14:02:25.004Z,80.68
2017-05-07T14:04:48.769Z,80.97
2017-05-07T14:07:04.166Z,80.24
2017-05-07T14:09:28.026Z,80.3
2017-05-07T14:11:51.909Z,81.16
2017-05-07T14:14:15.779Z,80.43
2017-05-07T14:16:39.653Z,80.2
2017-05-07T14:18:55.065Z,80.49
2017-05-07T14:20:56.793Z,81.07
2017-05-07T14:22:59.313Z,80.68
2017-05-07T14:25:14.747Z,81.07
2017-05-07T14:27:38.638Z,81.35
2017-05-07T14:30:02.576Z,82.46
2017-05-07T14:32:05.110Z,81.93
2017-05-07T14:34:28.954Z,81.54
2017-05-07T14:36:54.063Z,81.35
